메인 페이지
METAR-TAF:

METAR-TAF

공항 :

벨파스트, 북아일랜드

위도: 54-39N, 경도: 006-13W, 고도: 81m

현재 날씨관측

예보는 34분 전, 03:20시(UTC)에 발표되었습니다.
5kt
온도 12°C
습도 94%
기압 1017 hPa
시정 10km 이상
고도 600ft 상공 흐림

METAR: EGAA 130320Z AUTO 36005KT 9999 OVC006 12/11 Q1017

시각: 04:54 (03:54 UTC)

예보

예보는 3 시간 28분 전, 00:26시(UTC)에 발표되었습니다.
예보 대상 시간: 13일 00시부터 13일 24시까지 (UTC)
여러 방향의 바람 3kt
시정 10km 이상
고도 700ft 상공 구름 많음
일시적
13일 00시부터 13일 08시까지 (UTC)
고도 700ft 상공 구름 보통
확률 30% :
일시적
13일 00시부터 13일 07시까지 (UTC)
시정: 6000m
고도 400ft 상공 구름 많음
전환 중
13일 08시부터 13일 11시까지 (UTC)
고도 2000ft 상공 구름 많음
확률 30% :
일시적
13일 11시부터 13일 18시까지 (UTC)
시정: 5000m
소나기
전환 중
13일 12시부터 13일 15시까지 (UTC)
동북동10kt

TAF: EGAA 130026Z 1300/1324 VRB03KT 9999 BKN007 TEMPO 1300/1308 SCT007 PROB30 TEMPO 1300/1307 6000 BKN004 BECMG 1308/1311 BKN020 PROB30 TEMPO 1311/1318 5000 SHRA BECMG 1312/1315 07010KT

4,000개 이상의 공항 관측 자료 및 예보 (METAR 및 TAF 보고).

지도상에서 검색 가능한 기상관측소가 노란 점과 빨간 점으로 표시되어 있습니다.

기상관측소 명을 보려면 표시 위로 마우스를 이동하세요.

날씨 관측과 예보를 보려면 클릭하세요.

지도 변경 : 확대하려면 엑스 표시가 있는 녹색 버튼, 축소하려면 빼기 표시가 있는 녹색 버튼, 다음 페이지의 지도를 보려면 녹색 화살표를 클릭하세요.


METAR-TAF: